createdAt,value
2023-03-01T00:01:39.923Z,35.30
2023-03-01T00:04:08.000Z,33.40
2023-03-01T00:06:37.769Z,35.50
2023-03-01T00:09:06.498Z,36.20
2023-03-01T00:11:35.228Z,34.50
2023-03-01T00:14:05.170Z,35.30
2023-03-01T00:16:35.847Z,36.30
2023-03-01T00:19:04.234Z,34.00
2023-03-01T00:21:32.354Z,36.20
2023-03-01T00:24:00.342Z,36.00
2023-03-01T00:26:28.984Z,34.20
2023-03-01T00:28:59.465Z,33.90
2023-03-01T00:31:30.573Z,36.30
2023-03-01T00:34:00.484Z,35.70
2023-03-01T00:36:30.573Z,37.60
2023-03-01T00:38:59.584Z,38.10
2023-03-01T00:41:28.808Z,36.50
2023-03-01T00:43:56.922Z,38.50
2023-03-01T00:46:26.856Z,37.50
2023-03-01T00:48:55.053Z,37.60
2023-03-01T00:51:24.675Z,37.20
2023-03-01T00:53:53.701Z,38.70
2023-03-01T00:56:22.189Z,39.90
2023-03-01T00:58:50.378Z,41.00
2023-03-01T01:01:21.737Z,39.50
2023-03-01T01:03:53.149Z,38.90
2023-03-01T01:06:23.661Z,38.00
2023-03-01T01:08:53.074Z,38.60
2023-03-01T01:11:21.948Z,37.40
2023-03-01T01:13:50.714Z,37.10
2023-03-01T01:16:21.987Z,38.20
2023-03-01T01:18:51.169Z,36.90
2023-03-01T01:21:21.626Z,37.70
2023-03-01T01:23:50.537Z,37.50
2023-03-01T01:26:20.442Z,35.60
2023-03-01T01:28:48.877Z,38.30
2023-03-01T01:31:17.733Z,37.90
2023-03-01T01:33:46.751Z,34.90
2023-03-01T01:36:14.935Z,35.80
2023-03-01T01:38:43.094Z,34.80
2023-03-01T01:41:12.382Z,34.60
2023-03-01T01:43:42.710Z,33.20
2023-03-01T01:46:24.506Z,35.00
2023-03-01T01:48:58.398Z,32.20
2023-03-01T01:51:30.072Z,33.00
2023-03-01T01:54:01.744Z,38.20
2023-03-01T01:56:31.538Z,35.00
2023-03-01T01:59:00.116Z,36.20
2023-03-01T02:01:28.477Z,34.90
2023-03-01T02:03:56.946Z,37.70
2023-03-01T02:06:30.276Z,37.50
2023-03-01T02:09:05.472Z,35.40
2023-03-01T02:11:34.335Z,36.60
2023-03-01T02:14:02.371Z,36.90
2023-03-01T02:16:31.584Z,36.70
2023-03-01T02:19:00.348Z,38.70
2023-03-01T02:21:42.768Z,36.30
2023-03-01T02:24:23.186Z,35.60
2023-03-01T02:26:55.137Z,36.50
2023-03-01T02:29:24.017Z,37.20
2023-03-01T02:31:56.900Z,36.10
2023-03-01T02:37:00.804Z,35.60
2023-03-01T02:39:33.890Z,35.80
2023-03-01T02:42:04.715Z,37.50
2023-03-01T02:44:32.786Z,35.20
2023-03-01T02:47:03.811Z,37.70
2023-03-01T02:49:35.022Z,36.20
2023-03-01T02:52:17.293Z,36.40
2023-03-01T02:54:51.541Z,37.90
2023-03-01T02:57:21.128Z,37.80
2023-03-01T02:59:50.857Z,36.30
2023-03-01T03:02:36.248Z,35.80
2023-03-01T03:05:10.851Z,37.00
2023-03-01T03:07:41.263Z,36.10
2023-03-01T03:10:12.610Z,36.90
2023-03-01T03:12:42.383Z,35.40
2023-03-01T03:15:12.987Z,36.70
2023-03-01T03:17:46.307Z,38.20
2023-03-01T03:20:29.490Z,37.00
2023-03-01T03:23:00.311Z,37.00
2023-03-01T03:25:30.133Z,37.00
2023-03-01T03:27:59.090Z,38.60
2023-03-01T03:30:28.854Z,34.30
2023-03-01T03:32:57.997Z,36.10
2023-03-01T03:35:30.467Z,38.30
2023-03-01T03:38:02.405Z,36.30
2023-03-01T03:40:32.602Z,35.00
2023-03-01T03:43:00.996Z,38.20
2023-03-01T03:45:29.141Z,35.60
2023-03-01T03:47:57.212Z,35.50
2023-03-01T03:50:25.212Z,34.80
2023-03-01T03:52:53.486Z,35.30
2023-03-01T03:55:21.560Z,34.10
2023-03-01T03:57:51.685Z,36.00
2023-03-01T04:00:24.167Z,33.30
2023-03-01T04:02:56.606Z,35.00
2023-03-01T04:05:25.025Z,35.30
2023-03-01T04:08:01.411Z,31.70
2023-03-01T04:10:31.767Z,34.30
2023-03-01T04:13:00.119Z,34.20
2023-03-01T04:15:28.857Z,35.00
2023-03-01T04:17:57.131Z,34.30
2023-03-01T04:20:27.406Z,36.60
2023-03-01T04:23:09.102Z,36.40
2023-03-01T04:25:38.596Z,35.00
2023-03-01T04:28:07.377Z,34.00
2023-03-01T04:30:36.380Z,34.90
2023-03-01T04:33:06.553Z,35.90
2023-03-01T04:35:35.376Z,33.90
2023-03-01T04:38:03.868Z,37.00
2023-03-01T04:40:32.246Z,35.70
2023-03-01T04:43:00.817Z,34.40
2023-03-01T04:45:28.901Z,34.00
2023-03-01T04:47:58.635Z,35.20
2023-03-01T04:50:26.666Z,34.30
2023-03-01T04:52:55.099Z,35.20
2023-03-01T04:55:26.203Z,33.30
2023-03-01T04:57:54.813Z,33.10
2023-03-01T05:00:24.074Z,35.50
2023-03-01T05:02:54.512Z,34.40
2023-03-01T05:05:25.882Z,35.40
2023-03-01T05:07:55.666Z,35.20
2023-03-01T05:10:24.974Z,34.90
2023-03-01T05:12:53.375Z,34.10
2023-03-01T05:15:25.848Z,35.70
2023-03-01T05:17:59.090Z,35.30
2023-03-01T05:20:31.095Z,34.40
2023-03-01T05:23:05.566Z,35.80
2023-03-01T05:25:34.450Z,36.80
2023-03-01T05:28:04.623Z,35.70
2023-03-01T05:30:33.836Z,36.20
2023-03-01T05:33:03.095Z,35.50
2023-03-01T05:35:34.670Z,36.30
2023-03-01T05:38:03.822Z,35.20
2023-03-01T05:40:33.783Z,37.70
2023-03-01T05:43:05.626Z,36.40
2023-03-01T05:45:36.298Z,35.60
2023-03-01T05:48:05.778Z,36.20
2023-03-01T05:51:01.709Z,36.70
2023-03-01T05:53:31.416Z,35.40
2023-03-01T05:56:00.766Z,33.90
2023-03-01T05:59:26.219Z,36.20
2023-03-01T06:01:54.318Z,33.30
2023-03-01T06:04:22.391Z,35.90
2023-03-01T06:06:50.481Z,36.20
2023-03-01T06:09:21.321Z,34.30
2023-03-01T06:11:52.456Z,38.40
2023-03-01T06:14:21.316Z,35.90
2023-03-01T06:16:49.575Z,36.80
2023-03-01T06:19:18.248Z,37.30
2023-03-01T06:21:46.465Z,37.70
2023-03-01T06:24:14.628Z,37.80
2023-03-01T06:26:42.863Z,37.20
2023-03-01T06:29:11.208Z,38.70
2023-03-01T06:35:18.254Z,37.40
2023-03-01T06:37:47.942Z,35.20
2023-03-01T06:40:16.850Z,37.70
2023-03-01T06:42:50.072Z,36.60
2023-03-01T06:45:19.767Z,34.30
2023-03-01T06:47:48.099Z,35.90
2023-03-01T06:50:17.784Z,34.50
2023-03-01T06:53:18.115Z,36.50
2023-03-01T06:56:25.179Z,34.10
2023-03-01T06:58:53.380Z,35.30
2023-03-01T07:02:09.886Z,35.60
2023-03-01T07:05:04.281Z,35.30
2023-03-01T07:07:32.664Z,35.10
2023-03-01T07:10:01.012Z,32.70
2023-03-01T07:12:29.378Z,33.90
2023-03-01T07:14:58.060Z,33.50
2023-03-01T07:17:26.432Z,32.60
2023-03-01T07:19:54.907Z,32.30
2023-03-01T07:22:25.799Z,31.60
2023-03-01T07:24:56.803Z,35.60
2023-03-01T07:27:25.100Z,36.70
2023-03-01T07:29:53.604Z,33.60
2023-03-01T07:32:21.920Z,32.50
2023-03-01T07:34:51.702Z,33.40
2023-03-01T07:37:19.962Z,33.50
2023-03-01T07:39:48.574Z,32.90
2023-03-01T07:42:16.838Z,30.70
2023-03-01T07:44:45.189Z,31.70
2023-03-01T07:47:15.845Z,29.30
2023-03-01T07:49:44.150Z,29.40
2023-03-01T07:52:13.369Z,27.30
2023-03-01T07:54:45.049Z,27.90
2023-03-01T07:57:13.453Z,26.90
2023-03-01T07:59:42.909Z,27.00
2023-03-01T08:02:12.016Z,27.60
2023-03-01T08:04:40.293Z,26.10
2023-03-01T08:07:08.821Z,26.10
2023-03-01T08:09:37.656Z,26.20
2023-03-01T08:12:09.469Z,24.80
2023-03-01T08:14:37.765Z,23.60
2023-03-01T08:17:06.061Z,23.70
2023-03-01T08:19:37.567Z,24.10
2023-03-01T08:22:08.232Z,24.10
2023-03-01T08:24:50.722Z,24.00
2023-03-01T08:27:24.550Z,22.00
2023-03-01T08:29:55.140Z,23.20
2023-03-01T08:32:26.847Z,21.50
2023-03-01T08:34:55.392Z,21.00
2023-03-01T08:37:23.744Z,20.40
2023-03-01T08:39:52.075Z,18.40
2023-03-01T08:42:20.412Z,20.60
2023-03-01T08:44:49.036Z,18.00
2023-03-01T08:47:17.306Z,17.30
2023-03-01T08:49:45.843Z,15.70
2023-03-01T08:52:14.029Z,17.40
2023-03-01T08:54:42.299Z,18.70
2023-03-01T08:57:10.500Z,17.60
2023-03-01T08:59:38.896Z,17.60
2023-03-01T09:02:12.407Z,16.80
2023-03-01T09:04:40.832Z,15.80
2023-03-01T09:07:10.670Z,15.90
2023-03-01T09:09:39.276Z,17.20
2023-03-01T09:12:09.298Z,16.60
2023-03-01T09:14:41.582Z,16.00
2023-03-01T09:17:09.915Z,14.90
2023-03-01T09:19:38.487Z,14.00
2023-03-01T09:22:06.976Z,12.80
2023-03-01T09:24:35.665Z,13.50
2023-03-01T09:27:09.172Z,13.40
2023-03-01T09:29:37.753Z,14.40
2023-03-01T09:32:08.507Z,14.10
2023-03-01T09:34:58.325Z,13.80
2023-03-01T09:37:31.334Z,14.90
2023-03-01T09:40:00.810Z,14.30
2023-03-01T09:42:32.993Z,13.80
2023-03-01T09:45:26.263Z,14.80
2023-03-01T09:47:56.482Z,20.10
2023-03-01T09:50:34.293Z,22.50
2023-03-01T09:53:04.532Z,21.10
2023-03-01T09:55:39.466Z,21.30
2023-03-01T09:58:27.555Z,21.80
2023-03-01T10:01:00.543Z,21.20
2023-03-01T10:03:38.444Z,22.10
2023-03-01T10:06:27.477Z,22.10
2023-03-01T10:09:11.384Z,21.30
2023-03-01T10:11:46.076Z,22.50
2023-03-01T10:14:24.810Z,21.40
2023-03-01T10:16:58.928Z,20.70
2023-03-01T10:19:34.634Z,20.90
2023-03-01T10:22:10.810Z,19.60
2023-03-01T10:24:39.171Z,18.30
2023-03-01T10:27:13.597Z,18.30
2023-03-01T10:29:54.938Z,19.00
2023-03-01T10:32:25.145Z,18.60
2023-03-01T10:34:54.253Z,17.80
2023-03-01T10:37:25.104Z,17.60
2023-03-01T10:39:59.607Z,18.90
2023-03-01T10:42:31.289Z,19.10
2023-03-01T10:45:14.944Z,19.50
2023-03-01T10:47:43.443Z,17.60
2023-03-01T10:50:22.953Z,16.40
2023-03-01T10:53:00.173Z,16.40
2023-03-01T10:55:34.369Z,16.00
2023-03-01T10:58:19.402Z,14.90
2023-03-01T11:00:51.577Z,14.90
2023-03-01T11:03:24.678Z,14.50
2023-03-01T11:05:59.063Z,14.90
2023-03-01T11:08:43.892Z,16.00
2023-03-01T11:11:33.253Z,14.30
2023-03-01T11:14:23.433Z,13.20
2023-03-01T11:17:02.113Z,14.80
2023-03-01T11:19:36.531Z,14.50
2023-03-01T11:22:11.626Z,14.90
2023-03-01T11:24:43.696Z,13.80
2023-03-01T11:27:20.224Z,15.70
2023-03-01T11:29:54.762Z,15.30
2023-03-01T11:32:27.431Z,14.70
2023-03-01T11:35:01.469Z,13.10
2023-03-01T11:37:42.057Z,12.50
2023-03-01T11:40:23.798Z,13.10
2023-03-01T11:43:12.569Z,14.70
2023-03-01T11:45:59.151Z,12.00
2023-03-01T11:48:49.955Z,11.90
2023-03-01T11:51:26.288Z,13.60
2023-03-01T11:54:10.760Z,10.90
2023-03-01T11:56:44.261Z,12.50
2023-03-01T11:59:42.638Z,11.40
2023-03-01T12:02:33.186Z,12.20
2023-03-01T12:05:22.433Z,11.80
2023-03-01T12:07:58.734Z,11.10
2023-03-01T12:10:33.746Z,10.50
2023-03-01T12:13:32.965Z,11.30
2023-03-01T12:16:38.725Z,10.70
2023-03-01T12:22:29.690Z,9.20
2023-03-01T12:25:20.312Z,9.90
2023-03-01T12:28:18.859Z,10.90
2023-03-01T12:31:06.420Z,10.70
2023-03-01T12:33:46.691Z,9.70
2023-03-01T12:36:44.880Z,9.70
2023-03-01T12:39:31.570Z,9.10
2023-03-01T12:42:06.857Z,9.30
2023-03-01T12:44:57.597Z,10.60
2023-03-01T12:47:40.561Z,11.00
2023-03-01T12:50:19.598Z,10.90
2023-03-01T12:52:52.507Z,11.20
2023-03-01T12:55:29.246Z,11.10
2023-03-01T12:58:06.366Z,11.50
2023-03-01T13:00:40.500Z,10.70
2023-03-01T13:03:19.182Z,8.90
2023-03-01T13:06:07.315Z,10.20
2023-03-01T13:08:44.693Z,10.70
2023-03-01T13:11:21.659Z,10.70
2023-03-01T13:13:51.844Z,9.60
2023-03-01T13:16:43.591Z,11.10
2023-03-01T13:19:18.516Z,10.30
2023-03-01T13:21:48.846Z,10.40
2023-03-01T13:24:29.288Z,9.60
2023-03-01T13:27:25.494Z,10.80
2023-03-01T13:29:55.601Z,10.80
2023-03-01T13:32:37.787Z,11.80
2023-03-01T13:35:42.853Z,13.20
2023-03-01T13:38:41.443Z,11.20
2023-03-01T13:41:10.270Z,10.70
2023-03-01T13:43:41.370Z,12.10
2023-03-01T13:46:17.947Z,11.50
2023-03-01T13:48:50.996Z,10.50
2023-03-01T13:51:24.521Z,10.40
2023-03-01T13:53:54.948Z,12.60
2023-03-01T13:56:28.632Z,11.20
2023-03-01T13:59:01.656Z,11.90
2023-03-01T14:01:32.242Z,12.50
2023-03-01T14:04:01.174Z,12.70
2023-03-01T14:06:31.576Z,12.00
2023-03-01T14:09:10.945Z,11.70
2023-03-01T14:12:19.426Z,12.10
2023-03-01T14:15:00.465Z,11.70
2023-03-01T14:18:04.546Z,11.70
2023-03-01T14:20:38.370Z,9.80
2023-03-01T14:23:13.590Z,11.00
2023-03-01T14:25:50.021Z,11.50
2023-03-01T14:28:21.669Z,11.60
2023-03-01T14:30:51.496Z,10.70
2023-03-01T14:33:25.362Z,11.90
2023-03-01T14:35:59.438Z,11.90
2023-03-01T14:38:35.050Z,10.80
2023-03-01T14:41:07.079Z,12.00
2023-03-01T14:43:46.427Z,10.30
2023-03-01T14:46:22.061Z,10.70
2023-03-01T14:48:55.431Z,11.70
2023-03-01T14:51:24.654Z,11.50
2023-03-01T14:53:53.819Z,10.40
2023-03-01T14:56:22.929Z,12.20
2023-03-01T14:59:06.441Z,11.80
2023-03-01T15:01:36.285Z,12.80
2023-03-01T15:04:15.370Z,13.10
2023-03-01T15:06:45.001Z,12.40
2023-03-01T15:09:17.046Z,12.90
2023-03-01T15:11:46.014Z,12.80
2023-03-01T15:14:49.367Z,12.00
2023-03-01T15:19:52.130Z,12.00
2023-03-01T15:25:06.431Z,15.10
2023-03-01T15:27:34.655Z,13.90
2023-03-01T15:30:05.283Z,21.10
2023-03-01T15:32:40.866Z,13.30
2023-03-01T15:35:41.614Z,12.50
2023-03-01T15:38:28.466Z,12.80
2023-03-01T15:40:58.838Z,12.50
2023-03-01T15:43:42.358Z,12.30
2023-03-01T15:46:19.736Z,12.10
2023-03-01T15:48:52.929Z,12.10
2023-03-01T15:51:33.325Z,13.00
2023-03-01T15:54:06.102Z,12.70
2023-03-01T15:56:37.322Z,12.80
2023-03-01T15:59:42.425Z,12.50
2023-03-01T16:02:12.852Z,13.60
2023-03-01T16:04:41.285Z,13.60
2023-03-01T16:07:14.951Z,13.70
2023-03-01T16:09:44.405Z,13.80
2023-03-01T16:12:17.032Z,13.70
2023-03-01T16:14:46.527Z,13.20
2023-03-01T16:17:19.857Z,13.20
2023-03-01T16:19:48.296Z,13.50
2023-03-01T16:22:16.628Z,14.20
2023-03-01T16:24:44.857Z,14.90
2023-03-01T16:27:14.153Z,14.20
2023-03-01T16:29:43.675Z,14.20
2023-03-01T16:32:11.988Z,14.00
2023-03-01T16:34:41.471Z,15.20
2023-03-01T16:37:09.596Z,14.70
2023-03-01T16:39:42.469Z,15.80
2023-03-01T16:42:11.020Z,12.70
2023-03-01T16:44:40.325Z,13.70
2023-03-01T16:47:09.217Z,14.70
2023-03-01T16:50:01.421Z,15.00
2023-03-01T16:52:29.872Z,16.00
2023-03-01T16:54:58.531Z,18.80
2023-03-01T16:57:35.811Z,16.40
2023-03-01T17:00:07.803Z,14.10
2023-03-01T17:03:01.194Z,14.90
2023-03-01T17:05:42.201Z,15.20
2023-03-01T17:08:10.558Z,14.00
2023-03-01T17:10:39.282Z,15.00
2023-03-01T17:13:07.768Z,16.00
2023-03-01T17:15:41.065Z,16.50
2023-03-01T17:18:10.611Z,16.90
2023-03-01T17:20:39.554Z,16.70
2023-03-01T17:24:05.489Z,17.40
2023-03-01T17:26:33.964Z,17.70
2023-03-01T17:29:27.041Z,18.00
2023-03-01T17:31:58.982Z,17.10
2023-03-01T17:34:28.047Z,18.70
2023-03-01T17:36:56.728Z,19.00
2023-03-01T17:39:28.619Z,19.80
2023-03-01T17:42:00.631Z,20.20
2023-03-01T17:44:38.272Z,21.30
2023-03-01T17:47:16.061Z,20.80
2023-03-01T17:49:44.492Z,21.00
2023-03-01T17:52:15.062Z,19.60
2023-03-01T17:54:43.604Z,21.30
2023-03-01T17:57:40.277Z,20.50
2023-03-01T18:00:15.397Z,21.50
2023-03-01T18:02:44.554Z,21.10
2023-03-01T18:05:14.720Z,20.50
2023-03-01T18:07:55.354Z,20.60
2023-03-01T18:10:23.777Z,20.00
2023-03-01T18:12:55.317Z,20.10
2023-03-01T18:15:23.863Z,21.90
2023-03-01T18:17:52.239Z,19.90
2023-03-01T18:20:21.069Z,18.80
2023-03-01T18:22:52.745Z,21.30
2023-03-01T18:25:21.872Z,20.70
2023-03-01T18:27:50.356Z,21.50
2023-03-01T18:30:19.078Z,20.50
2023-03-01T18:32:47.365Z,19.80
2023-03-01T18:35:16.300Z,20.90
2023-03-01T18:37:44.944Z,21.80
2023-03-01T18:40:13.763Z,21.90
2023-03-01T18:42:42.279Z,22.70
2023-03-01T18:45:13.559Z,25.30
2023-03-01T18:48:18.786Z,23.90
2023-03-01T18:50:47.299Z,23.50
2023-03-01T18:53:18.886Z,25.70
2023-03-01T18:55:47.293Z,25.60
2023-03-01T18:58:15.752Z,25.60
2023-03-01T19:00:46.272Z,26.00
2023-03-01T19:03:14.641Z,26.20
2023-03-01T19:05:43.133Z,25.60
2023-03-01T19:08:11.611Z,25.60
2023-03-01T19:10:40.534Z,26.80
2023-03-01T19:13:09.780Z,26.00
2023-03-01T19:15:38.699Z,28.00
2023-03-01T19:18:09.608Z,28.20
2023-03-01T19:20:39.532Z,28.00
2023-03-01T19:23:08.838Z,27.60
2023-03-01T19:25:37.065Z,29.00
2023-03-01T19:28:05.720Z,26.70
2023-03-01T19:30:34.313Z,27.30
2023-03-01T19:33:02.520Z,27.80
2023-03-01T19:35:33.715Z,27.10
2023-03-01T19:38:02.026Z,26.20
2023-03-01T19:40:30.378Z,27.00
2023-03-01T19:42:58.566Z,28.10
2023-03-01T19:45:33.281Z,26.20
2023-03-01T19:48:02.802Z,27.00
2023-03-01T19:50:31.347Z,27.70
2023-03-01T19:53:00.334Z,25.40
2023-03-01T19:55:28.966Z,25.30
2023-03-01T19:57:57.402Z,26.10
2023-03-01T20:00:26.050Z,26.70
2023-03-01T20:02:54.191Z,27.80
2023-03-01T20:05:22.666Z,27.90
2023-03-01T20:07:50.975Z,26.20
2023-03-01T20:10:20.405Z,26.50
2023-03-01T20:12:49.223Z,27.50
2023-03-01T20:15:18.113Z,28.10
2023-03-01T20:17:50.238Z,30.00
2023-03-01T20:20:38.001Z,29.40
2023-03-01T20:23:09.325Z,29.80
2023-03-01T20:25:37.901Z,29.90
2023-03-01T20:28:06.883Z,28.60
2023-03-01T20:30:36.963Z,30.40
2023-03-01T20:33:05.748Z,29.80
2023-03-01T20:35:35.502Z,30.00
2023-03-01T20:38:04.895Z,31.40
2023-03-01T20:40:33.540Z,30.80
2023-03-01T20:43:02.009Z,30.60
2023-03-01T20:45:30.338Z,30.60
2023-03-01T20:47:59.042Z,30.00
2023-03-01T20:50:27.825Z,31.90
2023-03-01T20:52:56.233Z,31.50
2023-03-01T20:55:24.678Z,30.80
2023-03-01T20:57:53.266Z,30.80
2023-03-01T21:00:22.588Z,30.50
2023-03-01T21:02:52.883Z,31.70
2023-03-01T21:05:23.362Z,32.30
2023-03-01T21:07:51.949Z,30.70
2023-03-01T21:10:21.536Z,31.50
2023-03-01T21:12:50.478Z,31.50
2023-03-01T21:15:28.699Z,30.40
2023-03-01T21:17:57.959Z,28.80
2023-03-01T21:20:26.366Z,29.00
2023-03-01T21:22:55.152Z,30.40
2023-03-01T21:25:23.452Z,28.90
2023-03-01T21:27:51.738Z,28.40
2023-03-01T21:30:20.227Z,29.90
2023-03-01T21:32:48.594Z,28.20
2023-03-01T21:35:17.081Z,29.40
2023-03-01T21:37:46.071Z,28.40
2023-03-01T21:40:15.710Z,29.40
2023-03-01T21:42:44.433Z,30.00
2023-03-01T21:45:14.971Z,30.20
2023-03-01T21:47:43.244Z,29.40
2023-03-01T21:50:16.151Z,29.80
2023-03-01T21:52:47.629Z,29.40
2023-03-01T21:55:19.098Z,31.20
2023-03-01T21:58:07.998Z,30.90
2023-03-01T22:00:39.266Z,29.50
2023-03-01T22:03:19.824Z,31.00
2023-03-01T22:05:59.099Z,31.90
2023-03-01T22:08:28.496Z,30.70
2023-03-01T22:10:56.816Z,34.40
2023-03-01T22:13:25.151Z,32.00
2023-03-01T22:15:53.348Z,33.60
2023-03-01T22:18:21.614Z,35.70
2023-03-01T22:20:54.627Z,36.60
2023-03-01T22:23:22.822Z,36.90
2023-03-01T22:25:51.121Z,37.50
2023-03-01T22:28:19.615Z,38.40
2023-03-01T22:30:47.913Z,37.90
2023-03-01T22:33:19.060Z,38.90
2023-03-01T22:35:54.852Z,39.00
2023-03-01T22:38:29.199Z,41.60
2023-03-01T22:40:59.115Z,43.60
2023-03-01T22:43:30.042Z,42.70
2023-03-01T22:46:12.396Z,43.60
2023-03-01T22:48:56.086Z,44.80
2023-03-01T22:51:34.345Z,44.20
2023-03-01T22:54:06.093Z,45.60
2023-03-01T22:56:45.808Z,45.80
2023-03-01T22:59:18.324Z,45.50
2023-03-01T23:01:48.066Z,43.10
2023-03-01T23:04:19.316Z,45.60
2023-03-01T23:06:53.142Z,42.10
2023-03-01T23:09:24.172Z,42.30
2023-03-01T23:11:53.297Z,42.70
2023-03-01T23:14:22.114Z,42.00
2023-03-01T23:16:50.945Z,42.50
2023-03-01T23:19:19.203Z,41.20
2023-03-01T23:21:49.537Z,40.20
2023-03-01T23:24:19.833Z,40.20
2023-03-01T23:26:52.661Z,40.90
2023-03-01T23:29:21.599Z,39.60
2023-03-01T23:31:49.875Z,40.50
2023-03-01T23:34:18.745Z,39.30
2023-03-01T23:36:47.313Z,40.30
2023-03-01T23:39:15.625Z,40.40
2023-03-01T23:41:44.081Z,38.80
2023-03-01T23:44:16.131Z,38.70
2023-03-01T23:46:45.842Z,39.70
2023-03-01T23:49:16.303Z,46.60
2023-03-01T23:51:46.968Z,44.50
2023-03-01T23:54:17.941Z,47.40
2023-03-01T23:56:46.998Z,43.50
2023-03-01T23:59:17.497Z,41.30
